createdAt,value
2022-11-29T00:01:36.917Z,18.63
2022-11-29T00:04:04.844Z,17.77
2022-11-29T00:06:34.053Z,18.05
2022-11-29T00:09:06.392Z,16.52
2022-11-29T00:11:54.515Z,17.25
2022-11-29T00:14:25.065Z,17.15
2022-11-29T00:16:54.928Z,17.40
2022-11-29T00:19:22.798Z,16.88
2022-11-29T00:21:50.547Z,17.23
2022-11-29T00:24:18.507Z,16.45
2022-11-29T00:26:46.131Z,16.98
2022-11-29T00:29:14.163Z,16.55
2022-11-29T00:31:42.113Z,17.52
2022-11-29T00:34:11.620Z,17.33
2022-11-29T00:36:39.788Z,15.88
2022-11-29T00:39:11.530Z,17.02
2022-11-29T00:41:39.336Z,16.70
2022-11-29T00:44:06.950Z,16.98
2022-11-29T00:46:34.763Z,16.27
2022-11-29T00:49:02.357Z,15.82
2022-11-29T00:51:29.934Z,16.13
2022-11-29T00:53:57.515Z,15.93
2022-11-29T00:56:25.230Z,15.82
2022-11-29T00:58:52.877Z,16.35
2022-11-29T01:01:20.547Z,15.75
2022-11-29T01:03:48.426Z,15.77
2022-11-29T01:06:17.728Z,14.07
2022-11-29T01:08:46.138Z,16.00
2022-11-29T01:11:22.611Z,15.55
2022-11-29T01:13:51.244Z,16.70
2022-11-29T01:16:19.052Z,16.48
2022-11-29T01:18:46.778Z,17.30
2022-11-29T01:21:19.765Z,15.95
2022-11-29T01:23:47.993Z,16.35
2022-11-29T01:26:19.414Z,16.73
2022-11-29T01:28:48.707Z,15.90
2022-11-29T01:31:19.392Z,16.17
2022-11-29T01:33:47.301Z,16.52
2022-11-29T01:36:15.513Z,17.58
2022-11-29T01:38:43.390Z,17.15
2022-11-29T01:41:13.915Z,16.48
2022-11-29T01:43:59.876Z,16.40
2022-11-29T01:46:29.741Z,17.25
2022-11-29T01:49:18.781Z,16.67
2022-11-29T01:52:07.489Z,15.90
2022-11-29T01:54:38.907Z,15.85
2022-11-29T01:57:08.274Z,16.63
2022-11-29T01:59:38.679Z,16.40
2022-11-29T02:02:13.209Z,16.60
2022-11-29T02:04:43.817Z,16.52
2022-11-29T02:07:12.171Z,17.15
2022-11-29T02:09:40.003Z,16.77
2022-11-29T02:12:10.663Z,17.33
2022-11-29T02:14:49.980Z,17.73
2022-11-29T02:17:27.927Z,18.20
2022-11-29T02:20:27.709Z,18.10
2022-11-29T02:23:19.490Z,17.92
2022-11-29T02:26:08.987Z,16.60
2022-11-29T02:29:14.730Z,15.93
2022-11-29T02:32:19.577Z,15.77
2022-11-29T02:34:52.918Z,15.68
2022-11-29T02:37:42.257Z,15.23
2022-11-29T02:40:21.631Z,15.18
2022-11-29T02:42:57.807Z,14.77
2022-11-29T02:45:56.316Z,13.80
2022-11-29T02:48:33.607Z,14.18
2022-11-29T02:51:35.321Z,14.23
2022-11-29T02:54:12.941Z,13.00
2022-11-29T02:56:58.152Z,14.18
2022-11-29T02:59:50.561Z,13.40
2022-11-29T03:02:32.879Z,13.40
2022-11-29T03:05:18.823Z,12.32
2022-11-29T03:07:55.758Z,12.32
2022-11-29T03:10:55.879Z,12.57
2022-11-29T03:14:04.103Z,12.15
2022-11-29T03:16:37.165Z,12.32
2022-11-29T03:19:23.448Z,12.52
2022-11-29T03:22:19.855Z,13.25
2022-11-29T03:25:04.506Z,12.40
2022-11-29T03:27:55.995Z,12.85
2022-11-29T03:30:23.722Z,13.30
2022-11-29T03:33:21.398Z,13.02
2022-11-29T03:35:59.346Z,12.90
2022-11-29T03:38:33.133Z,13.25
2022-11-29T03:41:09.451Z,13.20
2022-11-29T03:46:23.584Z,12.40
2022-11-29T03:49:00.226Z,13.60
2022-11-29T03:51:45.302Z,13.15
2022-11-29T03:54:18.162Z,13.50
2022-11-29T03:56:46.061Z,13.50
2022-11-29T03:59:31.765Z,13.82
2022-11-29T04:02:43.870Z,14.85
2022-11-29T04:05:17.489Z,15.50
2022-11-29T04:08:21.424Z,15.63
2022-11-29T04:11:28.644Z,14.82
2022-11-29T04:14:15.021Z,14.57
2022-11-29T04:17:10.343Z,14.95
2022-11-29T04:19:52.676Z,15.38
2022-11-29T04:22:37.928Z,15.43
2022-11-29T04:25:27.162Z,16.27
2022-11-29T04:27:54.697Z,14.52
2022-11-29T04:30:24.138Z,15.02
2022-11-29T04:33:22.950Z,15.02
2022-11-29T04:36:08.252Z,15.80
2022-11-29T04:38:53.950Z,16.58
2022-11-29T04:41:55.016Z,15.82
2022-11-29T04:44:45.345Z,16.65
2022-11-29T04:47:39.058Z,17.38
2022-11-29T04:50:43.814Z,17.50
2022-11-29T04:53:17.900Z,17.50
2022-11-29T04:56:04.007Z,18.45
2022-11-29T05:01:07.684Z,17.63
2022-11-29T05:03:39.283Z,18.15
2022-11-29T05:06:17.591Z,17.38
2022-11-29T05:08:48.395Z,17.67
2022-11-29T05:11:26.486Z,17.60
2022-11-29T05:14:08.854Z,18.23
2022-11-29T05:17:01.288Z,18.48
2022-11-29T05:19:47.457Z,18.73
2022-11-29T05:24:56.814Z,20.88
2022-11-29T05:27:32.274Z,20.42
2022-11-29T05:30:14.939Z,19.87
2022-11-29T05:32:57.878Z,19.40
2022-11-29T05:35:34.285Z,19.00
2022-11-29T05:40:45.177Z,17.52
2022-11-29T05:43:23.317Z,18.98
2022-11-29T05:46:09.244Z,18.50
2022-11-29T05:48:47.591Z,18.20
2022-11-29T05:51:15.104Z,19.85
2022-11-29T05:54:11.092Z,19.92
2022-11-29T05:57:00.240Z,18.65
2022-11-29T05:59:29.598Z,18.70
2022-11-29T06:02:03.310Z,18.27
2022-11-29T06:04:57.305Z,18.63
2022-11-29T06:07:49.479Z,19.00
2022-11-29T06:10:23.836Z,20.35
2022-11-29T06:13:18.764Z,18.92
2022-11-29T06:16:36.734Z,19.17
2022-11-29T06:19:26.150Z,19.55
2022-11-29T06:22:24.714Z,18.85
2022-11-29T06:25:34.084Z,20.42
2022-11-29T06:28:33.514Z,18.65
2022-11-29T06:31:04.113Z,19.30
2022-11-29T06:33:44.966Z,18.70
2022-11-29T06:36:25.935Z,18.88
2022-11-29T06:38:53.660Z,20.85
2022-11-29T06:41:23.584Z,23.42
2022-11-29T06:43:51.537Z,20.67
2022-11-29T06:46:25.237Z,21.08
2022-11-29T06:49:24.127Z,22.20
2022-11-29T06:51:57.828Z,20.55
2022-11-29T06:54:48.322Z,19.45
2022-11-29T06:57:33.736Z,20.20
2022-11-29T07:00:11.625Z,20.20
2022-11-29T07:02:41.940Z,20.40
2022-11-29T07:05:21.369Z,17.92
2022-11-29T07:07:49.345Z,18.98
2022-11-29T07:10:18.503Z,19.13
2022-11-29T07:12:47.930Z,18.88
2022-11-29T07:15:18.255Z,18.70
2022-11-29T07:17:54.771Z,18.13
2022-11-29T07:20:31.418Z,18.13
2022-11-29T07:23:32.610Z,20.15
2022-11-29T07:26:35.644Z,19.13
2022-11-29T07:29:07.527Z,20.70
2022-11-29T07:31:53.750Z,21.08
2022-11-29T07:34:53.627Z,17.98
2022-11-29T07:38:10.107Z,18.88
2022-11-29T07:41:00.296Z,18.23
2022-11-29T07:43:38.466Z,18.45
2022-11-29T07:46:06.042Z,18.70
2022-11-29T07:48:33.631Z,18.83
2022-11-29T07:51:01.456Z,18.45
2022-11-29T07:53:30.318Z,18.23
2022-11-29T07:55:58.822Z,18.58
2022-11-29T07:58:26.477Z,18.63
2022-11-29T08:00:54.176Z,18.05
2022-11-29T08:03:21.765Z,18.13
2022-11-29T08:05:49.375Z,18.33
2022-11-29T08:08:17.003Z,18.38
2022-11-29T08:10:44.836Z,18.75
2022-11-29T08:13:12.443Z,18.40
2022-11-29T08:15:46.742Z,18.20
2022-11-29T08:18:15.152Z,18.85
2022-11-29T08:20:43.183Z,18.95
2022-11-29T08:23:13.110Z,18.38
2022-11-29T08:25:42.274Z,20.30
2022-11-29T08:28:12.651Z,20.30
2022-11-29T08:30:40.199Z,19.85
2022-11-29T08:33:07.802Z,19.77
2022-11-29T08:35:36.011Z,18.45
2022-11-29T08:38:04.917Z,20.02
2022-11-29T08:40:32.520Z,19.38
2022-11-29T08:43:00.080Z,19.33
2022-11-29T08:45:27.682Z,20.42
2022-11-29T08:47:55.344Z,19.55
2022-11-29T08:50:22.964Z,18.65
2022-11-29T08:53:09.616Z,18.83
2022-11-29T08:55:40.644Z,19.20
2022-11-29T08:58:11.601Z,20.60
2022-11-29T09:00:40.330Z,19.10
2022-11-29T09:03:27.479Z,20.30
2022-11-29T09:05:55.332Z,20.00
2022-11-29T09:08:22.947Z,20.75
2022-11-29T09:10:50.647Z,19.85
2022-11-29T09:13:18.267Z,21.45
2022-11-29T09:15:46.016Z,20.50
2022-11-29T09:18:13.706Z,20.45
2022-11-29T09:20:46.611Z,20.77
2022-11-29T09:23:14.218Z,20.05
2022-11-29T09:25:47.136Z,19.48
2022-11-29T09:28:14.699Z,19.95
2022-11-29T09:30:42.350Z,19.27
2022-11-29T09:33:09.925Z,20.52
2022-11-29T09:35:37.471Z,20.15
2022-11-29T09:38:05.644Z,18.92
2022-11-29T09:40:50.295Z,18.92
2022-11-29T09:43:53.189Z,19.55
2022-11-29T09:46:23.462Z,17.83
2022-11-29T09:49:19.086Z,17.75
2022-11-29T09:52:02.558Z,18.15
2022-11-29T09:54:39.010Z,16.42
2022-11-29T09:59:42.915Z,17.42
2022-11-29T10:02:29.249Z,16.35
2022-11-29T10:05:26.613Z,16.52
2022-11-29T10:08:09.972Z,14.93
2022-11-29T10:10:49.444Z,16.60
2022-11-29T10:13:38.194Z,15.30
2022-11-29T10:16:31.690Z,17.45
2022-11-29T10:19:09.608Z,16.38
2022-11-29T10:21:38.798Z,15.70
2022-11-29T10:24:17.389Z,15.27
2022-11-29T10:26:45.671Z,16.33
2022-11-29T10:29:14.656Z,16.58
2022-11-29T10:31:44.779Z,16.33
2022-11-29T10:34:19.026Z,16.23
2022-11-29T10:36:52.504Z,16.85
2022-11-29T10:39:44.012Z,16.75
2022-11-29T10:42:44.287Z,17.17
2022-11-29T10:45:35.408Z,15.77
2022-11-29T10:48:04.467Z,16.17
2022-11-29T10:50:34.945Z,15.90
2022-11-29T10:53:09.505Z,15.35
2022-11-29T10:55:46.094Z,14.80
2022-11-29T10:58:23.382Z,14.65
2022-11-29T11:00:59.044Z,15.02
2022-11-29T11:03:29.533Z,15.98
2022-11-29T11:06:22.149Z,16.27
2022-11-29T11:08:57.958Z,15.32
2022-11-29T11:11:32.952Z,16.33
2022-11-29T11:14:06.057Z,16.00
2022-11-29T11:16:37.273Z,15.57
2022-11-29T11:19:31.085Z,14.18
2022-11-29T11:22:00.478Z,13.40
2022-11-29T11:24:30.926Z,13.90
2022-11-29T11:26:59.350Z,13.88
2022-11-29T11:29:38.942Z,13.27
2022-11-29T11:32:15.299Z,14.32
2022-11-29T11:37:28.688Z,15.15
2022-11-29T11:39:59.182Z,14.98
2022-11-29T11:42:40.410Z,16.00
2022-11-29T11:45:11.125Z,15.60
2022-11-29T11:47:53.194Z,16.00
2022-11-29T11:50:41.162Z,14.65
2022-11-29T11:53:19.897Z,14.65
2022-11-29T11:56:01.015Z,13.70
2022-11-29T11:58:39.602Z,14.00
2022-11-29T12:01:12.889Z,15.52
2022-11-29T12:04:06.100Z,13.50
2022-11-29T12:06:52.223Z,14.40
2022-11-29T12:12:10.376Z,14.48
2022-11-29T12:14:56.710Z,14.82
2022-11-29T12:17:36.583Z,14.32
2022-11-29T12:20:28.382Z,13.88
2022-11-29T12:23:08.530Z,14.10
2022-11-29T12:25:47.893Z,14.70
2022-11-29T12:28:20.591Z,14.13
2022-11-29T12:31:33.512Z,13.77
2022-11-29T12:34:04.140Z,13.95
2022-11-29T12:37:10.173Z,14.48
2022-11-29T12:40:02.686Z,14.23
2022-11-29T12:42:51.409Z,16.02
2022-11-29T12:45:43.731Z,15.50
2022-11-29T12:48:42.168Z,15.35
2022-11-29T12:51:15.495Z,15.95
2022-11-29T12:54:12.164Z,17.63
2022-11-29T12:56:59.838Z,15.85
2022-11-29T12:59:27.377Z,17.65
2022-11-29T13:02:21.177Z,17.92
2022-11-29T13:04:59.605Z,18.38
2022-11-29T13:07:39.261Z,18.50
2022-11-29T13:10:21.988Z,19.75
2022-11-29T13:12:58.016Z,19.13
2022-11-29T13:15:38.127Z,18.77
2022-11-29T13:18:16.807Z,18.15
2022-11-29T13:21:09.359Z,19.05
2022-11-29T13:26:40.690Z,18.95
2022-11-29T13:29:17.243Z,19.35
2022-11-29T13:31:45.797Z,21.02
2022-11-29T13:34:38.154Z,19.55
2022-11-29T13:37:19.074Z,20.02
2022-11-29T13:40:01.621Z,19.33
2022-11-29T13:42:47.643Z,20.98
2022-11-29T13:45:29.090Z,19.40
2022-11-29T13:47:59.653Z,18.15
2022-11-29T13:50:45.997Z,20.13
2022-11-29T13:53:25.205Z,20.77
2022-11-29T13:56:01.394Z,21.70
2022-11-29T13:58:29.022Z,20.95
2022-11-29T14:01:02.450Z,21.17
2022-11-29T14:03:38.935Z,21.92
2022-11-29T14:09:16.644Z,21.50
2022-11-29T14:11:59.044Z,21.45
2022-11-29T14:14:29.090Z,20.80
2022-11-29T14:17:00.786Z,21.02
2022-11-29T14:19:33.780Z,22.40
2022-11-29T14:22:01.829Z,21.27
2022-11-29T14:24:32.546Z,22.38
2022-11-29T14:27:10.066Z,20.90
2022-11-29T14:29:50.052Z,21.23
2022-11-29T14:32:23.828Z,22.50
2022-11-29T14:35:08.248Z,22.13
2022-11-29T14:38:03.097Z,23.55
2022-11-29T14:40:42.486Z,22.70
2022-11-29T14:43:40.760Z,24.98
2022-11-29T14:46:17.650Z,24.83
2022-11-29T14:48:46.850Z,23.50
2022-11-29T14:51:17.150Z,22.42
2022-11-29T14:53:46.288Z,22.88
2022-11-29T14:56:32.268Z,22.75
2022-11-29T14:59:37.361Z,21.83
2022-11-29T15:02:20.313Z,23.05
2022-11-29T15:04:50.318Z,21.92
2022-11-29T15:07:23.895Z,22.75
2022-11-29T15:09:51.890Z,22.92
2022-11-29T15:12:23.985Z,24.08
2022-11-29T15:15:35.544Z,24.80
2022-11-29T15:18:34.186Z,23.67
2022-11-29T15:21:19.820Z,25.48
2022-11-29T15:23:47.473Z,25.10
2022-11-29T15:26:20.159Z,23.52
2022-11-29T15:28:47.808Z,23.42
2022-11-29T15:31:18.224Z,24.55
2022-11-29T15:33:48.015Z,23.30
2022-11-29T15:36:21.356Z,23.48
2022-11-29T15:38:59.735Z,24.02
2022-11-29T15:41:29.307Z,23.77
2022-11-29T15:43:59.395Z,23.38
2022-11-29T15:46:28.970Z,21.60
2022-11-29T15:49:13.544Z,23.23
2022-11-29T15:51:41.313Z,25.98
2022-11-29T15:54:13.544Z,25.70
2022-11-29T15:56:48.062Z,23.60
2022-11-29T15:59:22.552Z,23.30
2022-11-29T16:01:51.023Z,23.02
2022-11-29T16:04:20.344Z,22.30
2022-11-29T16:06:49.051Z,24.25
2022-11-29T16:09:23.325Z,23.10
2022-11-29T16:11:51.005Z,23.67
2022-11-29T16:14:22.520Z,23.23
2022-11-29T16:16:52.636Z,23.23
2022-11-29T16:19:34.351Z,24.42
2022-11-29T16:22:09.460Z,23.17
2022-11-29T16:25:00.982Z,23.23
2022-11-29T16:27:35.287Z,24.45
2022-11-29T16:30:03.835Z,23.35
2022-11-29T16:32:36.619Z,22.95
2022-11-29T16:35:13.140Z,23.45
2022-11-29T16:37:42.996Z,22.98
2022-11-29T16:40:30.160Z,23.83
2022-11-29T16:43:03.826Z,22.63
2022-11-29T16:45:41.500Z,23.00
2022-11-29T16:48:26.336Z,21.65
2022-11-29T16:51:13.298Z,23.60
2022-11-29T16:53:42.812Z,23.70
2022-11-29T16:56:14.739Z,21.17
2022-11-29T16:59:25.097Z,21.90
2022-11-29T17:01:31.905Z,22.27
2022-11-29T17:04:00.607Z,20.83
2022-11-29T17:06:29.549Z,20.45
2022-11-29T17:08:59.049Z,21.42
2022-11-29T17:11:26.832Z,21.58
2022-11-29T17:13:54.434Z,22.38
2022-11-29T17:16:23.720Z,22.58
2022-11-29T17:18:52.875Z,22.35
2022-11-29T17:21:26.053Z,23.30
2022-11-29T17:23:54.460Z,24.10
2022-11-29T17:26:22.711Z,23.77
2022-11-29T17:28:51.572Z,22.50
2022-11-29T17:31:22.190Z,20.88
2022-11-29T17:33:50.690Z,22.42
2022-11-29T17:36:19.856Z,22.40
2022-11-29T17:38:48.245Z,23.38
2022-11-29T17:41:18.158Z,24.88
2022-11-29T17:43:45.756Z,25.30
2022-11-29T17:46:15.425Z,25.17
2022-11-29T17:48:45.452Z,24.08
2022-11-29T17:51:43.716Z,24.10
2022-11-29T17:54:04.332Z,22.67
2022-11-29T17:56:32.331Z,22.13
2022-11-29T17:59:01.362Z,20.70
2022-11-29T18:01:31.221Z,22.30
2022-11-29T18:04:01.864Z,23.05
2022-11-29T18:06:33.882Z,24.20
2022-11-29T18:09:02.023Z,21.77
2022-11-29T18:11:43.326Z,21.98
2022-11-29T18:14:17.046Z,23.33
2022-11-29T18:16:45.635Z,23.42
2022-11-29T18:19:16.323Z,22.25
2022-11-29T18:21:44.435Z,21.27
2022-11-29T18:24:12.122Z,23.70
2022-11-29T18:26:39.938Z,22.50
2022-11-29T18:29:08.142Z,23.35
2022-11-29T18:31:37.769Z,22.75
2022-11-29T18:34:09.316Z,23.17
2022-11-29T18:36:42.874Z,23.45
2022-11-29T18:39:20.760Z,23.25
2022-11-29T18:41:49.629Z,22.83
2022-11-29T18:44:19.500Z,24.40
2022-11-29T18:46:47.292Z,23.67
2022-11-29T18:49:16.725Z,23.33
2022-11-29T18:51:45.775Z,22.13
2022-11-29T18:54:14.714Z,23.27
2022-11-29T18:56:42.693Z,24.17
2022-11-29T18:59:17.028Z,24.42
2022-11-29T19:01:46.695Z,23.17
2022-11-29T19:04:19.534Z,24.30
2022-11-29T19:06:47.685Z,24.27
2022-11-29T19:09:23.817Z,25.60
2022-11-29T19:11:51.614Z,24.92
2022-11-29T19:14:19.864Z,25.67
2022-11-29T19:16:49.110Z,24.33
2022-11-29T19:19:18.637Z,26.65
2022-11-29T19:21:46.506Z,25.83
2022-11-29T19:24:15.733Z,24.05
2022-11-29T19:26:45.119Z,24.58
2022-11-29T19:29:17.324Z,25.23
2022-11-29T19:31:45.425Z,25.83
2022-11-29T19:34:13.131Z,27.73
2022-11-29T19:36:44.966Z,25.02
2022-11-29T19:39:15.240Z,24.42
2022-11-29T19:41:45.179Z,25.35
2022-11-29T19:44:12.929Z,25.95
2022-11-29T19:46:43.461Z,26.17
2022-11-29T19:49:11.658Z,26.40
2022-11-29T19:51:39.320Z,27.48
2022-11-29T19:54:08.617Z,27.00
2022-11-29T19:56:36.460Z,25.33
2022-11-29T19:59:04.199Z,25.83
2022-11-29T20:01:40.093Z,23.90
2022-11-29T20:04:08.820Z,23.20
2022-11-29T20:06:36.991Z,23.80
2022-11-29T20:09:04.944Z,23.33
2022-11-29T20:11:32.748Z,24.02
2022-11-29T20:14:04.985Z,22.00
2022-11-29T20:16:34.361Z,22.40
2022-11-29T20:19:02.085Z,22.92
2022-11-29T20:21:31.640Z,23.13
2022-11-29T20:24:01.975Z,22.80
2022-11-29T20:26:31.609Z,24.00
2022-11-29T20:28:59.700Z,21.85
2022-11-29T20:31:27.384Z,22.85
2022-11-29T20:33:57.375Z,22.95
2022-11-29T20:36:49.715Z,21.75
2022-11-29T20:39:43.824Z,22.67
2022-11-29T20:42:38.763Z,24.48
2022-11-29T20:45:08.880Z,24.02
2022-11-29T20:48:02.269Z,23.85
2022-11-29T20:50:32.055Z,25.35
2022-11-29T20:53:08.563Z,24.95
2022-11-29T20:55:42.460Z,24.60
2022-11-29T21:00:40.067Z,25.50
2022-11-29T21:03:07.737Z,23.42
2022-11-29T21:05:37.999Z,24.02
2022-11-29T21:08:05.745Z,24.00
2022-11-29T21:10:33.498Z,24.35
2022-11-29T21:13:01.534Z,22.83
2022-11-29T21:15:29.416Z,22.02
2022-11-29T21:17:57.557Z,23.90
2022-11-29T21:20:26.875Z,23.98
2022-11-29T21:23:30.079Z,26.48
2022-11-29T21:26:13.071Z,24.77
2022-11-29T21:28:49.614Z,23.35
2022-11-29T21:31:17.817Z,23.73
2022-11-29T21:33:45.796Z,23.40
2022-11-29T21:36:13.784Z,25.00
2022-11-29T21:38:41.619Z,23.65
2022-11-29T21:41:09.432Z,24.48
2022-11-29T21:44:04.926Z,25.05
2022-11-29T21:46:24.559Z,23.73
2022-11-29T21:48:52.920Z,25.83
2022-11-29T21:51:20.606Z,24.65
2022-11-29T21:53:48.294Z,24.67
2022-11-29T21:56:15.966Z,24.48
2022-11-29T21:58:43.702Z,25.05
2022-11-29T22:01:16.726Z,26.17
2022-11-29T22:03:44.459Z,25.83
2022-11-29T22:06:14.553Z,26.20
2022-11-29T22:08:42.642Z,25.45
2022-11-29T22:11:12.895Z,25.40
2022-11-29T22:14:01.515Z,25.55
2022-11-29T22:16:30.202Z,24.73
2022-11-29T22:18:57.897Z,24.98
2022-11-29T22:21:25.566Z,24.75
2022-11-29T22:23:53.630Z,24.35
2022-11-29T22:26:22.258Z,24.65
2022-11-29T22:28:49.886Z,24.05
2022-11-29T22:31:17.488Z,25.98
2022-11-29T22:33:45.093Z,26.42
2022-11-29T22:36:13.369Z,24.98
2022-11-29T22:38:41.239Z,25.42
2022-11-29T22:41:13.953Z,25.95
2022-11-29T22:43:42.312Z,25.60
2022-11-29T22:46:11.793Z,26.00
2022-11-29T22:48:40.255Z,27.10
2022-11-29T22:51:09.895Z,26.67
2022-11-29T22:53:39.200Z,27.20
2022-11-29T22:56:09.489Z,25.58
2022-11-29T22:58:37.685Z,29.23
2022-11-29T23:01:14.306Z,28.67
2022-11-29T23:03:44.719Z,27.48
2022-11-29T23:06:17.154Z,25.60
2022-11-29T23:08:46.219Z,24.48
2022-11-29T23:11:19.644Z,23.50
2022-11-29T23:13:47.330Z,23.73
2022-11-29T23:16:33.495Z,23.50
2022-11-29T23:19:01.718Z,22.17
2022-11-29T23:21:34.120Z,22.17
2022-11-29T23:24:02.162Z,20.88
2022-11-29T23:26:39.870Z,20.20
2022-11-29T23:29:09.422Z,19.90
2022-11-29T23:31:37.532Z,19.35
2022-11-29T23:34:05.413Z,18.45
2022-11-29T23:36:33.071Z,18.65
2022-11-29T23:39:00.972Z,17.02
2022-11-29T23:41:29.718Z,15.52
2022-11-29T23:43:59.615Z,15.50
2022-11-29T23:46:27.259Z,15.88
2022-11-29T23:48:55.017Z,15.13
2022-11-29T23:51:22.590Z,13.88
2022-11-29T23:53:54.161Z,13.90
2022-11-29T23:56:22.255Z,13.73
2022-11-29T23:58:50.297Z,13.40
